sensor_id;sensor_type;location;lat;lon;timestamp;pressure;altitude;pressure_sealevel;temperature;humidity
36664;BME280;53333;51.976;20.144;2023-09-18T00:01:07;100330.44;;;19.98;60.01
36664;BME280;53333;51.976;20.144;2023-09-18T00:03:40;100337.84;;;19.96;60.00
36664;BME280;53333;51.976;20.144;2023-09-18T00:06:14;100336.38;;;19.92;60.20
36664;BME280;53333;51.976;20.144;2023-09-18T00:08:48;100339.34;;;19.89;60.15
36664;BME280;53333;51.976;20.144;2023-09-18T00:11:22;100337.75;;;19.86;60.35
36664;BME280;53333;51.976;20.144;2023-09-18T00:13:55;100331.59;;;19.84;60.52
36664;BME280;53333;51.976;20.144;2023-09-18T00:16:28;100328.31;;;19.81;60.69
36664;BME280;53333;51.976;20.144;2023-09-18T00:19:15;100329.41;;;19.78;60.65
36664;BME280;53333;51.976;20.144;2023-09-18T00:21:47;100330.41;;;19.77;60.86
36664;BME280;53333;51.976;20.144;2023-09-18T00:24:22;100330.41;;;19.77;61.01
36664;BME280;53333;51.976;20.144;2023-09-18T00:26:57;100331.41;;;19.76;60.91
36664;BME280;53333;51.976;20.144;2023-09-18T00:29:30;100326.78;;;19.88;60.21
36664;BME280;53333;51.976;20.144;2023-09-18T00:32:03;100324.75;;;19.80;60.55
36664;BME280;53333;51.976;20.144;2023-09-18T00:34:37;100331.16;;;19.79;60.70
36664;BME280;53333;51.976;20.144;2023-09-18T00:37:09;100327.72;;;19.77;60.70
36664;BME280;53333;51.976;20.144;2023-09-18T00:39:45;100325.22;;;19.74;61.08
36664;BME280;53333;51.976;20.144;2023-09-18T00:42:19;100326.19;;;19.73;61.12
36664;BME280;53333;51.976;20.144;2023-09-18T00:44:54;100323.63;;;19.71;61.18
36664;BME280;53333;51.976;20.144;2023-09-18T00:47:27;100316.34;;;19.72;61.10
36664;BME280;53333;51.976;20.144;2023-09-18T00:50:01;100316.47;;;19.70;60.94
36664;BME280;53333;51.976;20.144;2023-09-18T00:52:34;100310.22;;;19.70;61.00
36664;BME280;53333;51.976;20.144;2023-09-18T00:55:08;100311.31;;;19.67;61.14
36664;BME280;53333;51.976;20.144;2023-09-18T00:57:42;100317.63;;;19.68;61.08
36664;BME280;53333;51.976;20.144;2023-09-18T01:00:16;100314.03;;;19.67;61.34
36664;BME280;53333;51.976;20.144;2023-09-18T01:02:49;100317.72;;;19.77;60.63
36664;BME280;53333;51.976;20.144;2023-09-18T01:05:23;100312.19;;;19.68;61.15
36664;BME280;53333;51.976;20.144;2023-09-18T01:07:56;100320.31;;;19.68;61.06
36664;BME280;53333;51.976;20.144;2023-09-18T01:10:44;100318.47;;;19.68;61.17
36664;BME280;53333;51.976;20.144;2023-09-18T01:13:27;100308.47;;;19.69;61.46
36664;BME280;53333;51.976;20.144;2023-09-18T01:16:07;100309.34;;;19.69;61.26
36664;BME280;53333;51.976;20.144;2023-09-18T01:18:56;100314.66;;;19.71;61.35
36664;BME280;53333;51.976;20.144;2023-09-18T01:21:29;100312.19;;;19.68;61.48
36664;BME280;53333;51.976;20.144;2023-09-18T01:24:04;100308.78;;;19.66;61.33
36664;BME280;53333;51.976;20.144;2023-09-18T01:26:37;100313.31;;;19.65;61.43
36664;BME280;53333;51.976;20.144;2023-09-18T01:29:10;100308.00;;;19.64;61.64
36664;BME280;53333;51.976;20.144;2023-09-18T01:31:43;100311.72;;;19.63;61.47
36664;BME280;53333;51.976;20.144;2023-09-18T01:34:19;100316.28;;;19.62;61.87
36664;BME280;53333;51.976;20.144;2023-09-18T01:36:55;100311.72;;;19.63;61.96
36664;BME280;53333;51.976;20.144;2023-09-18T01:39:32;100311.72;;;19.63;61.74
36664;BME280;53333;51.976;20.144;2023-09-18T01:42:07;100307.56;;;19.58;61.88
36664;BME280;53333;51.976;20.144;2023-09-18T01:44:41;100307.69;;;19.57;61.94
36664;BME280;53333;51.976;20.144;2023-09-18T01:47:17;100306.97;;;19.55;62.02
36664;BME280;53333;51.976;20.144;2023-09-18T01:49:52;100315.22;;;19.53;62.03
36664;BME280;53333;51.976;20.144;2023-09-18T01:52:25;100313.59;;;19.51;61.96
36664;BME280;53333;51.976;20.144;2023-09-18T01:54:59;100302.19;;;19.47;62.12
36664;BME280;53333;51.976;20.144;2023-09-18T01:57:32;100308.69;;;19.45;62.05
36664;BME280;53333;51.976;20.144;2023-09-18T02:00:06;100303.66;;;19.40;62.45
36664;BME280;53333;51.976;20.144;2023-09-18T02:02:44;100303.91;;;19.37;62.34
36664;BME280;53333;51.976;20.144;2023-09-18T02:05:36;100304.34;;;19.32;62.67
36664;BME280;53333;51.976;20.144;2023-09-18T02:08:09;100297.41;;;19.39;61.73
36664;BME280;53333;51.976;20.144;2023-09-18T02:10:44;100293.00;;;19.27;62.46
36664;BME280;53333;51.976;20.144;2023-09-18T02:13:17;100295.25;;;19.22;62.51
36664;BME280;53333;51.976;20.144;2023-09-18T02:15:50;100290.19;;;19.17;62.93
36664;BME280;53333;51.976;20.144;2023-09-18T02:18:23;100297.59;;;19.15;62.88
36664;BME280;53333;51.976;20.144;2023-09-18T02:20:56;100293.28;;;19.13;63.05
36664;BME280;53333;51.976;20.144;2023-09-18T02:23:29;100289.97;;;19.09;63.31
36664;BME280;53333;51.976;20.144;2023-09-18T02:26:03;100288.25;;;19.08;63.21
36664;BME280;53333;51.976;20.144;2023-09-18T02:28:36;100295.66;;;19.06;63.27
36664;BME280;53333;51.976;20.144;2023-09-18T02:31:11;100293.31;;;19.01;63.28
36664;BME280;53333;51.976;20.144;2023-09-18T02:33:44;100293.31;;;19.01;63.33
36664;BME280;53333;51.976;20.144;2023-09-18T02:36:18;100294.56;;;18.97;63.48
36664;BME280;53333;51.976;20.144;2023-09-18T02:38:53;100285.69;;;18.95;63.75
36664;BME280;53333;51.976;20.144;2023-09-18T02:41:28;100289.41;;;18.94;63.60
36664;BME280;53333;51.976;20.144;2023-09-18T02:44:01;100282.25;;;18.93;63.95
36664;BME280;53333;51.976;20.144;2023-09-18T02:46:34;100283.34;;;18.91;63.95
36664;BME280;53333;51.976;20.144;2023-09-18T02:49:07;100288.03;;;18.88;63.80
36664;BME280;53333;51.976;20.144;2023-09-18T02:51:40;100280.06;;;18.87;63.88
36664;BME280;53333;51.976;20.144;2023-09-18T02:54:16;100288.94;;;18.89;64.09
36664;BME280;53333;51.976;20.144;2023-09-18T02:56:51;100287.91;;;18.90;64.06
36664;BME280;53333;51.976;20.144;2023-09-18T02:59:25;100286.94;;;18.91;64.13
36664;BME280;53333;51.976;20.144;2023-09-18T03:01:58;100287.66;;;18.93;64.13
36664;BME280;53333;51.976;20.144;2023-09-18T03:04:31;100277.69;;;18.94;63.80
36664;BME280;53333;51.976;20.144;2023-09-18T03:07:05;100279.69;;;18.92;64.12
36664;BME280;53333;51.976;20.144;2023-09-18T03:09:38;100277.09;;;18.90;63.82
36664;BME280;53333;51.976;20.144;2023-09-18T03:12:12;100270.84;;;18.90;64.02
36664;BME280;53333;51.976;20.144;2023-09-18T03:14:45;100278.34;;;18.86;64.03
36664;BME280;53333;51.976;20.144;2023-09-18T03:17:19;100274.00;;;18.83;64.19
36664;BME280;53333;51.976;20.144;2023-09-18T03:19:52;100272.28;;;18.94;63.76
36664;BME280;53333;51.976;20.144;2023-09-18T03:22:25;100277.69;;;18.82;64.04
36664;BME280;53333;51.976;20.144;2023-09-18T03:24:58;100285.19;;;18.79;64.13
36664;BME280;53333;51.976;20.144;2023-09-18T03:27:32;100279.06;;;18.77;64.40
36664;BME280;53333;51.976;20.144;2023-09-18T03:30:10;100276.59;;;18.74;64.56
36664;BME280;53333;51.976;20.144;2023-09-18T03:32:44;100275.88;;;18.72;64.54
36664;BME280;53333;51.976;20.144;2023-09-18T03:35:20;100272.53;;;18.68;64.63
36664;BME280;53333;51.976;20.144;2023-09-18T03:37:53;100261.00;;;18.66;64.82
36664;BME280;53333;51.976;20.144;2023-09-18T03:40:26;100259.38;;;18.75;63.93
36664;BME280;53333;51.976;20.144;2023-09-18T03:43:00;100264.91;;;18.62;64.49
36664;BME280;53333;51.976;20.144;2023-09-18T03:45:33;100265.44;;;18.56;64.78
36664;BME280;53333;51.976;20.144;2023-09-18T03:48:07;100261.97;;;18.54;65.02
36664;BME280;53333;51.976;20.144;2023-09-18T03:50:40;100258.53;;;18.51;65.00
36664;BME280;53333;51.976;20.144;2023-09-18T03:53:14;100265.16;;;18.47;65.38
36664;BME280;53333;51.976;20.144;2023-09-18T03:55:48;100256.56;;;18.42;65.46
36664;BME280;53333;51.976;20.144;2023-09-18T03:58:22;100253.13;;;18.40;65.51
36664;BME280;53333;51.976;20.144;2023-09-18T04:00:56;100262.47;;;18.36;65.36
36664;BME280;53333;51.976;20.144;2023-09-18T04:03:29;100255.38;;;18.35;65.64
36664;BME280;53333;51.976;20.144;2023-09-18T04:06:05;100249.31;;;18.31;65.60
36664;BME280;53333;51.976;20.144;2023-09-18T04:08:38;100246.84;;;18.28;65.83
36664;BME280;53333;51.976;20.144;2023-09-18T04:11:11;100246.25;;;18.25;66.01
36664;BME280;53333;51.976;20.144;2023-09-18T04:13:45;100246.50;;;18.22;65.99
36664;BME280;53333;51.976;20.144;2023-09-18T04:16:18;100246.00;;;18.17;66.06
36664;BME280;53333;51.976;20.144;2023-09-18T04:18:51;100241.69;;;18.14;66.08
36664;BME280;53333;51.976;20.144;2023-09-18T04:21:25;100242.06;;;18.09;66.24
36664;BME280;53333;51.976;20.144;2023-09-18T04:24:00;100241.31;;;18.07;66.31
36664;BME280;53333;51.976;20.144;2023-09-18T04:26:33;100234.31;;;18.05;66.56
36664;BME280;53333;51.976;20.144;2023-09-18T04:29:09;100232.59;;;18.04;66.68
36664;BME280;53333;51.976;20.144;2023-09-18T04:31:42;100237.28;;;18.02;66.67
36664;BME280;53333;51.976;20.144;2023-09-18T04:34:15;100232.00;;;18.00;66.92
36664;BME280;53333;51.976;20.144;2023-09-18T04:36:48;100231.00;;;18.01;66.67
36664;BME280;53333;51.976;20.144;2023-09-18T04:39:21;100232.84;;;18.01;66.80
36664;BME280;53333;51.976;20.144;2023-09-18T04:41:54;100227.44;;;18.01;67.03
36664;BME280;53333;51.976;20.144;2023-09-18T04:44:28;100227.44;;;18.01;66.88
36664;BME280;53333;51.976;20.144;2023-09-18T04:47:02;100225.47;;;18.03;67.18
36664;BME280;53333;51.976;20.144;2023-09-18T04:49:35;100225.34;;;18.04;67.00
36664;BME280;53333;51.976;20.144;2023-09-18T04:52:08;100229.03;;;18.03;66.91
36664;BME280;53333;51.976;20.144;2023-09-18T04:54:41;100220.94;;;18.03;67.04
36664;BME280;53333;51.976;20.144;2023-09-18T04:57:14;100224.72;;;18.01;67.17
36664;BME280;53333;51.976;20.144;2023-09-18T04:59:51;100220.28;;;18.00;67.32
36664;BME280;53333;51.976;20.144;2023-09-18T05:02:40;100222.16;;;17.99;67.43
36664;BME280;53333;51.976;20.144;2023-09-18T05:05:14;100217.47;;;18.01;67.63
36664;BME280;53333;51.976;20.144;2023-09-18T05:07:50;100217.22;;;18.04;67.33
36664;BME280;53333;51.976;20.144;2023-09-18T05:10:23;100215.41;;;18.05;67.45
36664;BME280;53333;51.976;20.144;2023-09-18T05:12:56;100209.88;;;18.06;67.51
36664;BME280;53333;51.976;20.144;2023-09-18T05:15:35;100212.72;;;18.05;67.54
36664;BME280;53333;51.976;20.144;2023-09-18T05:18:08;100201.66;;;18.08;67.64
36664;BME280;53333;51.976;20.144;2023-09-18T05:20:42;100200.41;;;18.12;67.66
36664;BME280;53333;51.976;20.144;2023-09-18T05:23:15;100210.75;;;18.18;67.58
36664;BME280;53333;51.976;20.144;2023-09-18T05:25:49;100199.06;;;18.29;67.57
36664;BME280;53333;51.976;20.144;2023-09-18T05:28:22;100195.75;;;18.37;67.33
36664;BME280;53333;51.976;20.144;2023-09-18T05:30:57;100201.16;;;18.48;67.26
36664;BME280;53333;51.976;20.144;2023-09-18T05:33:30;100202.97;;;18.59;67.04
36664;BME280;53333;51.976;20.144;2023-09-18T05:36:04;100202.97;;;18.70;67.03
36664;BME280;53333;51.976;20.144;2023-09-18T05:38:37;100203.91;;;18.80;66.77
36664;BME280;53333;51.976;20.144;2023-09-18T05:41:10;100204.03;;;18.90;66.50
36664;BME280;53333;51.976;20.144;2023-09-18T05:43:43;100198.47;;;19.03;66.31
36664;BME280;53333;51.976;20.144;2023-09-18T05:46:17;100194.84;;;19.14;66.10
36664;BME280;53333;51.976;20.144;2023-09-18T05:48:50;100201.34;;;19.22;65.76
36664;BME280;53333;51.976;20.144;2023-09-18T05:51:27;100211.25;;;19.33;65.65
36664;BME280;53333;51.976;20.144;2023-09-18T05:54:00;100204.09;;;19.44;65.72
36664;BME280;53333;51.976;20.144;2023-09-18T05:56:33;100207.44;;;19.57;65.44
36664;BME280;53333;51.976;20.144;2023-09-18T05:59:06;100208.97;;;19.71;65.21
36664;BME280;53333;51.976;20.144;2023-09-18T06:01:41;100205.97;;;19.85;64.31
36664;BME280;53333;51.976;20.144;2023-09-18T06:04:14;100200.47;;;19.96;64.38
36664;BME280;53333;51.976;20.144;2023-09-18T06:06:49;100203.22;;;20.06;64.16
36664;BME280;53333;51.976;20.144;2023-09-18T06:09:22;100203.25;;;20.16;63.80
36664;BME280;53333;51.976;20.144;2023-09-18T06:11:55;100198.16;;;20.23;63.53
36664;BME280;53333;51.976;20.144;2023-09-18T06:14:29;100191.06;;;20.31;63.35
36664;BME280;53333;51.976;20.144;2023-09-18T06:17:03;100201.09;;;20.41;63.27
36664;BME280;53333;51.976;20.144;2023-09-18T06:19:37;100195.69;;;20.50;62.95
36664;BME280;53333;51.976;20.144;2023-09-18T06:22:11;100195.59;;;20.62;62.71
36664;BME280;53333;51.976;20.144;2023-09-18T06:24:44;100187.22;;;20.75;62.60
36664;BME280;53333;51.976;20.144;2023-09-18T06:27:17;100185.97;;;20.89;62.21
36664;BME280;53333;51.976;20.144;2023-09-18T06:29:50;100190.09;;;21.02;62.00
36664;BME280;53333;51.976;20.144;2023-09-18T06:32:25;100186.81;;;21.18;61.85
36664;BME280;53333;51.976;20.144;2023-09-18T06:34:58;100191.13;;;21.31;61.27
36664;BME280;53333;51.976;20.144;2023-09-18T06:37:31;100185.25;;;21.45;61.17
36664;BME280;53333;51.976;20.144;2023-09-18T06:40:04;100179.41;;;21.59;60.79
36664;BME280;53333;51.976;20.144;2023-09-18T06:42:37;100182.34;;;21.76;60.37
36664;BME280;53333;51.976;20.144;2023-09-18T06:45:11;100181.75;;;21.92;59.95
36664;BME280;53333;51.976;20.144;2023-09-18T06:47:46;100190.31;;;22.07;59.62
36664;BME280;53333;51.976;20.144;2023-09-18T06:50:19;100188.19;;;22.28;59.05
36664;BME280;53333;51.976;20.144;2023-09-18T06:52:52;100187.97;;;22.49;58.97
36664;BME280;53333;51.976;20.144;2023-09-18T06:55:25;100176.28;;;22.67;57.99
36664;BME280;53333;51.976;20.144;2023-09-18T06:57:58;100182.91;;;22.82;57.80
36664;BME280;53333;51.976;20.144;2023-09-18T07:00:31;100180.34;;;22.99;57.03
36664;BME280;53333;51.976;20.144;2023-09-18T07:03:06;100179.38;;;23.18;56.39
36664;BME280;53333;51.976;20.144;2023-09-18T07:05:41;100185.16;;;23.33;56.40
36664;BME280;53333;51.976;20.144;2023-09-18T07:08:14;100190.00;;;23.65;56.09
36664;BME280;53333;51.976;20.144;2023-09-18T07:10:51;100182.72;;;23.74;55.50
36664;BME280;53333;51.976;20.144;2023-09-18T07:13:24;100181.84;;;23.91;55.29
36664;BME280;53333;51.976;20.144;2023-09-18T07:15:57;100172.53;;;24.02;55.13
36664;BME280;53333;51.976;20.144;2023-09-18T07:18:31;100167.91;;;24.29;54.30
36664;BME280;53333;51.976;20.144;2023-09-18T07:21:05;100174.38;;;24.62;53.26
36664;BME280;53333;51.976;20.144;2023-09-18T07:23:39;100175.16;;;25.06;52.70
36664;BME280;53333;51.976;20.144;2023-09-18T07:26:12;100176.06;;;25.47;51.89
36664;BME280;53333;51.976;20.144;2023-09-18T07:28:45;100179.59;;;25.89;50.99
36664;BME280;53333;51.976;20.144;2023-09-18T07:31:18;100165.81;;;26.38;50.94
36664;BME280;53333;51.976;20.144;2023-09-18T07:33:53;100159.72;;;26.59;49.58
36664;BME280;53333;51.976;20.144;2023-09-18T07:36:26;100161.13;;;26.87;48.46
36664;BME280;53333;51.976;20.144;2023-09-18T07:38:59;100165.13;;;27.30;49.04
36664;BME280;53333;51.976;20.144;2023-09-18T07:41:32;100159.22;;;27.42;47.46
36664;BME280;53333;51.976;20.144;2023-09-18T07:44:05;100163.53;;;27.36;47.10
36664;BME280;53333;51.976;20.144;2023-09-18T07:46:38;100173.34;;;27.30;46.92
36664;BME280;53333;51.976;20.144;2023-09-18T07:49:14;100164.41;;;27.36;46.61
36664;BME280;53333;51.976;20.144;2023-09-18T07:51:47;100172.91;;;27.42;46.15
36664;BME280;53333;51.976;20.144;2023-09-18T07:54:20;100162.97;;;27.79;46.64
36664;BME280;53333;51.976;20.144;2023-09-18T07:59:27;100162.44;;;28.58;44.17
36664;BME280;53333;51.976;20.144;2023-09-18T08:02:01;100167.81;;;29.03;43.17
36664;BME280;53333;51.976;20.144;2023-09-18T08:04:35;100161.03;;;29.70;41.67
36664;BME280;53333;51.976;20.144;2023-09-18T08:07:08;100159.19;;;30.40;40.51
36664;BME280;53333;51.976;20.144;2023-09-18T08:09:44;100161.16;;;31.15;38.71
36664;BME280;53333;51.976;20.144;2023-09-18T08:12:19;100153.34;;;31.79;37.45
36664;BME280;53333;51.976;20.144;2023-09-18T08:14:52;100142.63;;;32.22;36.31
36664;BME280;53333;51.976;20.144;2023-09-18T08:17:25;100147.53;;;32.79;35.42
36664;BME280;53333;51.976;20.144;2023-09-18T08:20:00;100151.50;;;33.28;34.63
36664;BME280;53333;51.976;20.144;2023-09-18T08:22:33;100152.19;;;33.74;34.06
36664;BME280;53333;51.976;20.144;2023-09-18T08:25:06;100144.41;;;34.27;33.24
36664;BME280;53333;51.976;20.144;2023-09-18T08:27:42;100152.56;;;34.70;32.92
36664;BME280;53333;51.976;20.144;2023-09-18T08:30:16;100152.78;;;35.18;31.78
36664;BME280;53333;51.976;20.144;2023-09-18T08:32:52;100154.81;;;35.64;31.85
36664;BME280;53333;51.976;20.144;2023-09-18T08:35:27;100145.66;;;36.11;30.49
36664;BME280;53333;51.976;20.144;2023-09-18T08:38:01;100144.22;;;36.61;29.78
36664;BME280;53333;51.976;20.144;2023-09-18T08:40:34;100144.28;;;37.07;29.03
36664;BME280;53333;51.976;20.144;2023-09-18T08:43:07;100142.19;;;37.48;28.55
36664;BME280;53333;51.976;20.144;2023-09-18T08:45:46;100138.75;;;37.75;28.12
36664;BME280;53333;51.976;20.144;2023-09-18T08:48:20;100142.84;;;38.06;28.01
36664;BME280;53333;51.976;20.144;2023-09-18T08:50:55;100137.44;;;38.39;27.39
36664;BME280;53333;51.976;20.144;2023-09-18T08:53:29;100139.03;;;38.57;26.92
36664;BME280;53333;51.976;20.144;2023-09-18T08:56:04;100131.41;;;38.69;25.77
36664;BME280;53333;51.976;20.144;2023-09-18T08:58:37;100133.13;;;38.75;26.02
36664;BME280;53333;51.976;20.144;2023-09-18T09:01:14;100120.72;;;38.88;25.36
36664;BME280;53333;51.976;20.144;2023-09-18T09:03:48;100119.31;;;39.13;25.44
36664;BME280;53333;51.976;20.144;2023-09-18T09:06:22;100120.63;;;39.37;24.82
36664;BME280;53333;51.976;20.144;2023-09-18T09:08:55;100125.25;;;39.54;24.67
36664;BME280;53333;51.976;20.144;2023-09-18T09:11:28;100116.47;;;39.77;24.41
36664;BME280;53333;51.976;20.144;2023-09-18T09:14:09;100102.44;;;40.10;23.85
36664;BME280;53333;51.976;20.144;2023-09-18T09:16:46;100107.78;;;40.27;23.90
36664;BME280;53333;51.976;20.144;2023-09-18T09:19:28;100105.59;;;40.39;24.07
36664;BME280;53333;51.976;20.144;2023-09-18T09:22:04;100101.66;;;40.35;23.43
36664;BME280;53333;51.976;20.144;2023-09-18T09:24:41;100105.88;;;40.38;23.16
36664;BME280;53333;51.976;20.144;2023-09-18T09:27:17;100097.31;;;40.60;22.98
36664;BME280;53333;51.976;20.144;2023-09-18T09:29:58;100096.22;;;40.66;22.83
36664;BME280;53333;51.976;20.144;2023-09-18T09:32:32;100099.00;;;40.71;22.42
36664;BME280;53333;51.976;20.144;2023-09-18T09:35:05;100092.31;;;40.82;22.30
36664;BME280;53333;51.976;20.144;2023-09-18T09:37:40;100085.84;;;40.77;22.44
36664;BME280;53333;51.976;20.144;2023-09-18T09:40:13;100089.22;;;40.84;22.06
36664;BME280;53333;51.976;20.144;2023-09-18T09:42:47;100083.38;;;40.91;22.40
36664;BME280;53333;51.976;20.144;2023-09-18T09:45:20;100084.25;;;41.01;22.63
36664;BME280;53333;51.976;20.144;2023-09-18T09:47:53;100069.97;;;41.03;22.07
36664;BME280;53333;51.976;20.144;2023-09-18T09:50:48;100074.41;;;41.25;22.45
36664;BME280;53333;51.976;20.144;2023-09-18T09:53:41;100073.03;;;41.53;22.16
36664;BME280;53333;51.976;20.144;2023-09-18T09:56:15;100072.13;;;41.68;21.59
36664;BME280;53333;51.976;20.144;2023-09-18T09:59:04;100074.41;;;41.71;21.33
36664;BME280;53333;51.976;20.144;2023-09-18T10:01:40;100067.69;;;41.67;21.18
36664;BME280;53333;51.976;20.144;2023-09-18T10:04:14;100066.25;;;41.85;20.81
36664;BME280;53333;51.976;20.144;2023-09-18T10:06:51;100065.63;;;41.98;20.41
36664;BME280;53333;51.976;20.144;2023-09-18T10:09:27;100057.75;;;42.05;20.16
36664;BME280;53333;51.976;20.144;2023-09-18T10:12:04;100049.63;;;42.04;19.41
36664;BME280;53333;51.976;20.144;2023-09-18T10:14:45;100045.13;;;42.13;19.69
36664;BME280;53333;51.976;20.144;2023-09-18T10:17:33;100051.81;;;42.17;19.58
36664;BME280;53333;51.976;20.144;2023-09-18T10:20:08;100051.00;;;42.11;19.66
36664;BME280;53333;51.976;20.144;2023-09-18T10:22:49;100039.81;;;42.06;19.50
36664;BME280;53333;51.976;20.144;2023-09-18T10:25:29;100033.06;;;42.07;19.54
36664;BME280;53333;51.976;20.144;2023-09-18T10:28:04;100040.06;;;42.15;19.55
36664;BME280;53333;51.976;20.144;2023-09-18T10:30:39;100035.09;;;41.91;19.45
36664;BME280;53333;51.976;20.144;2023-09-18T10:33:13;100028.19;;;40.45;20.67
36664;BME280;53333;51.976;20.144;2023-09-18T10:35:47;100025.59;;;40.28;20.87
36664;BME280;53333;51.976;20.144;2023-09-18T10:38:21;100038.28;;;40.56;21.14
36664;BME280;53333;51.976;20.144;2023-09-18T10:40:57;100025.00;;;40.21;21.48
36664;BME280;53333;51.976;20.144;2023-09-18T10:43:31;100027.69;;;39.95;21.35
36664;BME280;53333;51.976;20.144;2023-09-18T10:46:04;100019.75;;;40.35;21.16
36664;BME280;53333;51.976;20.144;2023-09-18T10:48:38;100022.34;;;40.77;20.56
36664;BME280;53333;51.976;20.144;2023-09-18T10:51:15;100006.69;;;41.17;19.26
36664;BME280;53333;51.976;20.144;2023-09-18T10:53:52;100006.66;;;41.43;19.68
36664;BME280;53333;51.976;20.144;2023-09-18T10:56:26;100001.88;;;41.54;19.16
36664;BME280;53333;51.976;20.144;2023-09-18T10:59:00;99990.69;;;41.44;19.32
36664;BME280;53333;51.976;20.144;2023-09-18T11:01:35;99992.09;;;41.36;19.27
36664;BME280;53333;51.976;20.144;2023-09-18T11:04:09;99984.84;;;40.78;19.88
36664;BME280;53333;51.976;20.144;2023-09-18T11:07:02;99986.31;;;39.34;20.72
36664;BME280;53333;51.976;20.144;2023-09-18T11:09:43;99972.56;;;37.80;22.55
36664;BME280;53333;51.976;20.144;2023-09-18T11:12:18;99963.94;;;36.41;23.71
36664;BME280;53333;51.976;20.144;2023-09-18T11:14:56;99969.50;;;37.04;23.07
36664;BME280;53333;51.976;20.144;2023-09-18T11:17:31;99971.31;;;37.71;22.81
36664;BME280;53333;51.976;20.144;2023-09-18T11:20:08;99974.09;;;38.43;21.71
36664;BME280;53333;51.976;20.144;2023-09-18T11:22:47;99970.00;;;38.23;21.89
36664;BME280;53333;51.976;20.144;2023-09-18T11:25:36;99953.44;;;37.89;22.03
36664;BME280;53333;51.976;20.144;2023-09-18T11:28:15;99955.63;;;38.37;22.40
36664;BME280;53333;51.976;20.144;2023-09-18T11:30:50;99947.13;;;38.81;21.45
36664;BME280;53333;51.976;20.144;2023-09-18T11:33:33;99959.50;;;39.38;20.74
36664;BME280;53333;51.976;20.144;2023-09-18T11:36:08;99956.28;;;38.71;21.22
36664;BME280;53333;51.976;20.144;2023-09-18T11:38:54;99966.63;;;39.13;21.28
36664;BME280;53333;51.976;20.144;2023-09-18T11:41:32;99955.25;;;39.25;20.49
36664;BME280;53333;51.976;20.144;2023-09-18T11:44:33;99953.44;;;39.03;20.31
36664;BME280;53333;51.976;20.144;2023-09-18T11:47:10;99953.38;;;39.41;20.44
36664;BME280;53333;51.976;20.144;2023-09-18T11:49:50;99947.19;;;39.76;19.97
36664;BME280;53333;51.976;20.144;2023-09-18T11:52:27;99953.69;;;40.08;19.18
36664;BME280;53333;51.976;20.144;2023-09-18T11:55:01;99959.28;;;40.13;19.69
36664;BME280;53333;51.976;20.144;2023-09-18T11:57:35;99948.16;;;40.18;19.37
36664;BME280;53333;51.976;20.144;2023-09-18T12:00:19;99949.28;;;40.33;19.21
36664;BME280;53333;51.976;20.144;2023-09-18T12:02:55;99946.31;;;39.81;19.42
36664;BME280;53333;51.976;20.144;2023-09-18T12:05:30;99948.28;;;39.86;19.83
36664;BME280;53333;51.976;20.144;2023-09-18T12:08:03;99939.09;;;39.90;19.21
36664;BME280;53333;51.976;20.144;2023-09-18T12:10:37;99942.72;;;39.86;19.26
36664;BME280;53333;51.976;20.144;2023-09-18T12:13:10;99952.75;;;39.76;19.26
36664;BME280;53333;51.976;20.144;2023-09-18T12:15:45;99951.75;;;39.45;19.42
36664;BME280;53333;51.976;20.144;2023-09-18T12:18:19;99941.91;;;38.30;20.54
36664;BME280;53333;51.976;20.144;2023-09-18T12:20:53;99952.88;;;37.48;20.99
36664;BME280;53333;51.976;20.144;2023-09-18T12:23:27;99942.16;;;36.50;21.97
36664;BME280;53333;51.976;20.144;2023-09-18T12:26:01;99942.31;;;36.43;22.66
36664;BME280;53333;51.976;20.144;2023-09-18T12:28:38;99931.38;;;36.53;22.57
36664;BME280;53333;51.976;20.144;2023-09-18T12:31:14;99925.97;;;36.47;22.25
36664;BME280;53333;51.976;20.144;2023-09-18T12:33:48;99919.91;;;36.04;22.98
36664;BME280;53333;51.976;20.144;2023-09-18T12:36:23;99924.69;;;35.16;24.06
36664;BME280;53333;51.976;20.144;2023-09-18T12:38:57;99919.28;;;34.43;25.01
36664;BME280;53333;51.976;20.144;2023-09-18T12:41:32;99902.00;;;33.87;25.32
36664;BME280;53333;51.976;20.144;2023-09-18T12:44:06;99906.59;;;33.44;25.67
36664;BME280;53333;51.976;20.144;2023-09-18T12:46:41;99909.06;;;33.09;26.73
36664;BME280;53333;51.976;20.144;2023-09-18T12:49:18;99895.78;;;32.74;27.14
36664;BME280;53333;51.976;20.144;2023-09-18T12:51:55;99900.13;;;32.38;27.91
36664;BME280;53333;51.976;20.144;2023-09-18T12:54:39;99890.69;;;32.20;27.84
36664;BME280;53333;51.976;20.144;2023-09-18T12:57:15;99888.19;;;32.12;28.03
36664;BME280;53333;51.976;20.144;2023-09-18T12:59:48;99888.88;;;32.01;28.31
36664;BME280;53333;51.976;20.144;2023-09-18T13:02:24;99891.47;;;31.89;28.31
36664;BME280;53333;51.976;20.144;2023-09-18T13:05:01;99881.97;;;31.78;28.03
36664;BME280;53333;51.976;20.144;2023-09-18T13:07:43;99880.13;;;31.65;28.13
36664;BME280;53333;51.976;20.144;2023-09-18T13:10:17;99872.78;;;31.53;28.53
36664;BME280;53333;51.976;20.144;2023-09-18T13:12:51;99873.59;;;31.46;29.32
36664;BME280;53333;51.976;20.144;2023-09-18T13:15:30;99869.41;;;31.44;28.74
36664;BME280;53333;51.976;20.144;2023-09-18T13:18:10;99858.41;;;31.37;28.54
36664;BME280;53333;51.976;20.144;2023-09-18T13:20:46;99851.47;;;31.21;28.80
36664;BME280;53333;51.976;20.144;2023-09-18T13:23:35;99847.88;;;31.07;29.16
36664;BME280;53333;51.976;20.144;2023-09-18T13:26:12;99839.63;;;30.94;29.17